sensor_id;sensor_type;location;lat;lon;timestamp;temperature;humidity
81307;DHT22;70775;50.846;3.224;2023-07-31T00:02:19;17.70;85.30
81307;DHT22;70775;50.846;3.224;2023-07-31T00:04:45;17.70;85.60
81307;DHT22;70775;50.846;3.224;2023-07-31T00:07:11;17.80;85.00
81307;DHT22;70775;50.846;3.224;2023-07-31T00:09:38;17.80;85.30
81307;DHT22;70775;50.846;3.224;2023-07-31T00:12:04;17.70;85.70
81307;DHT22;70775;50.846;3.224;2023-07-31T00:14:29;17.80;85.60
81307;DHT22;70775;50.846;3.224;2023-07-31T00:16:55;17.80;85.50
81307;DHT22;70775;50.846;3.224;2023-07-31T00:19:20;17.70;85.80
81307;DHT22;70775;50.846;3.224;2023-07-31T00:21:46;17.80;85.70
81307;DHT22;70775;50.846;3.224;2023-07-31T00:24:14;17.80;85.40
81307;DHT22;70775;50.846;3.224;2023-07-31T00:26:39;17.80;85.50
81307;DHT22;70775;50.846;3.224;2023-07-31T00:29:05;17.80;85.20
81307;DHT22;70775;50.846;3.224;2023-07-31T00:31:30;17.80;85.20
81307;DHT22;70775;50.846;3.224;2023-07-31T00:33:56;17.80;85.00
81307;DHT22;70775;50.846;3.224;2023-07-31T00:36:22;17.80;84.70
81307;DHT22;70775;50.846;3.224;2023-07-31T00:38:47;17.80;85.00
81307;DHT22;70775;50.846;3.224;2023-07-31T00:41:13;17.80;85.10
81307;DHT22;70775;50.846;3.224;2023-07-31T00:43:39;17.70;85.40
81307;DHT22;70775;50.846;3.224;2023-07-31T00:46:07;17.70;85.20
81307;DHT22;70775;50.846;3.224;2023-07-31T00:48:33;17.70;85.50
81307;DHT22;70775;50.846;3.224;2023-07-31T00:51:00;17.70;85.20
81307;DHT22;70775;50.846;3.224;2023-07-31T00:53:27;17.80;85.20
81307;DHT22;70775;50.846;3.224;2023-07-31T00:55:53;17.80;85.00
81307;DHT22;70775;50.846;3.224;2023-07-31T00:58:19;17.80;85.20
81307;DHT22;70775;50.846;3.224;2023-07-31T01:00:44;17.80;85.50
81307;DHT22;70775;50.846;3.224;2023-07-31T01:03:11;17.80;85.40
81307;DHT22;70775;50.846;3.224;2023-07-31T01:08:34;17.80;85.60
81307;DHT22;70775;50.846;3.224;2023-07-31T01:11:09;17.80;86.00
81307;DHT22;70775;50.846;3.224;2023-07-31T01:13:39;17.90;85.90
81307;DHT22;70775;50.846;3.224;2023-07-31T01:16:05;17.90;85.60
81307;DHT22;70775;50.846;3.224;2023-07-31T01:18:31;17.90;85.80
81307;DHT22;70775;50.846;3.224;2023-07-31T01:21:06;17.90;85.90
81307;DHT22;70775;50.846;3.224;2023-07-31T01:23:57;17.90;85.90
81307;DHT22;70775;50.846;3.224;2023-07-31T01:26:33;17.90;85.80
81307;DHT22;70775;50.846;3.224;2023-07-31T01:29:07;17.90;85.70
81307;DHT22;70775;50.846;3.224;2023-07-31T01:31:34;17.90;85.60
81307;DHT22;70775;50.846;3.224;2023-07-31T01:34:02;17.90;86.20
81307;DHT22;70775;50.846;3.224;2023-07-31T01:36:28;17.90;86.20
81307;DHT22;70775;50.846;3.224;2023-07-31T01:39:04;17.90;86.20
81307;DHT22;70775;50.846;3.224;2023-07-31T01:41:30;18.00;85.80
81307;DHT22;70775;50.846;3.224;2023-07-31T01:43:56;18.00;86.00
81307;DHT22;70775;50.846;3.224;2023-07-31T01:46:21;18.00;86.10
81307;DHT22;70775;50.846;3.224;2023-07-31T01:48:47;18.00;86.30
81307;DHT22;70775;50.846;3.224;2023-07-31T01:51:12;18.00;86.70
81307;DHT22;70775;50.846;3.224;2023-07-31T01:53:39;18.00;86.70
81307;DHT22;70775;50.846;3.224;2023-07-31T01:56:05;18.00;87.20
81307;DHT22;70775;50.846;3.224;2023-07-31T01:58:30;17.90;87.80
81307;DHT22;70775;50.846;3.224;2023-07-31T02:00:56;17.90;88.20
81307;DHT22;70775;50.846;3.224;2023-07-31T02:03:22;17.90;88.00
81307;DHT22;70775;50.846;3.224;2023-07-31T02:05:48;17.90;88.20
81307;DHT22;70775;50.846;3.224;2023-07-31T02:08:15;18.00;88.40
81307;DHT22;70775;50.846;3.224;2023-07-31T02:10:41;18.00;88.60
81307;DHT22;70775;50.846;3.224;2023-07-31T02:13:07;18.10;89.00
81307;DHT22;70775;50.846;3.224;2023-07-31T02:15:32;18.00;89.80
81307;DHT22;70775;50.846;3.224;2023-07-31T02:17:58;17.90;90.00
81307;DHT22;70775;50.846;3.224;2023-07-31T02:20:24;18.00;90.10
81307;DHT22;70775;50.846;3.224;2023-07-31T02:22:50;17.90;90.30
81307;DHT22;70775;50.846;3.224;2023-07-31T02:25:15;17.90;90.40
81307;DHT22;70775;50.846;3.224;2023-07-31T02:27:42;17.90;90.40
81307;DHT22;70775;50.846;3.224;2023-07-31T02:30:09;17.90;90.50
81307;DHT22;70775;50.846;3.224;2023-07-31T02:32:34;17.90;90.50
81307;DHT22;70775;50.846;3.224;2023-07-31T02:35:00;17.90;90.70
81307;DHT22;70775;50.846;3.224;2023-07-31T02:37:26;17.90;90.50
81307;DHT22;70775;50.846;3.224;2023-07-31T02:39:54;17.80;90.80
81307;DHT22;70775;50.846;3.224;2023-07-31T02:42:19;17.90;90.80
81307;DHT22;70775;50.846;3.224;2023-07-31T02:44:45;17.90;90.90
81307;DHT22;70775;50.846;3.224;2023-07-31T02:47:10;17.90;91.20
81307;DHT22;70775;50.846;3.224;2023-07-31T02:49:36;17.90;91.40
81307;DHT22;70775;50.846;3.224;2023-07-31T02:52:02;17.80;91.60
81307;DHT22;70775;50.846;3.224;2023-07-31T02:54:27;17.70;92.20
81307;DHT22;70775;50.846;3.224;2023-07-31T02:56:53;17.70;92.10
81307;DHT22;70775;50.846;3.224;2023-07-31T02:59:19;17.60;92.50
81307;DHT22;70775;50.846;3.224;2023-07-31T03:01:45;17.60;92.60
81307;DHT22;70775;50.846;3.224;2023-07-31T03:04:12;17.60;92.70
81307;DHT22;70775;50.846;3.224;2023-07-31T03:06:38;17.60;92.60
81307;DHT22;70775;50.846;3.224;2023-07-31T03:09:04;17.60;92.70
81307;DHT22;70775;50.846;3.224;2023-07-31T03:11:30;17.60;92.60
81307;DHT22;70775;50.846;3.224;2023-07-31T03:13:56;17.50;93.00
81307;DHT22;70775;50.846;3.224;2023-07-31T03:16:22;17.50;92.90
81307;DHT22;70775;50.846;3.224;2023-07-31T03:18:47;17.50;92.90
81307;DHT22;70775;50.846;3.224;2023-07-31T03:21:14;17.50;92.90
81307;DHT22;70775;50.846;3.224;2023-07-31T03:23:41;17.50;92.80
81307;DHT22;70775;50.846;3.224;2023-07-31T03:26:08;17.50;92.90
81307;DHT22;70775;50.846;3.224;2023-07-31T03:28:34;17.60;92.90
81307;DHT22;70775;50.846;3.224;2023-07-31T03:31:00;17.50;92.90
81307;DHT22;70775;50.846;3.224;2023-07-31T03:33:26;17.50;93.10
81307;DHT22;70775;50.846;3.224;2023-07-31T03:35:51;17.60;93.00
81307;DHT22;70775;50.846;3.224;2023-07-31T03:38:18;17.50;92.90
81307;DHT22;70775;50.846;3.224;2023-07-31T03:40:44;17.40;93.20
81307;DHT22;70775;50.846;3.224;2023-07-31T03:43:12;17.40;93.00
81307;DHT22;70775;50.846;3.224;2023-07-31T03:45:39;17.40;92.80
81307;DHT22;70775;50.846;3.224;2023-07-31T03:48:04;17.30;93.20
81307;DHT22;70775;50.846;3.224;2023-07-31T03:50:30;17.30;93.40
81307;DHT22;70775;50.846;3.224;2023-07-31T03:52:56;17.30;93.20
81307;DHT22;70775;50.846;3.224;2023-07-31T03:55:22;17.30;92.90
81307;DHT22;70775;50.846;3.224;2023-07-31T03:57:47;17.30;93.10
81307;DHT22;70775;50.846;3.224;2023-07-31T04:00:15;17.30;93.20
81307;DHT22;70775;50.846;3.224;2023-07-31T04:02:41;17.30;93.30
81307;DHT22;70775;50.846;3.224;2023-07-31T04:05:08;17.30;93.40
81307;DHT22;70775;50.846;3.224;2023-07-31T04:07:34;17.30;92.90
81307;DHT22;70775;50.846;3.224;2023-07-31T04:10:00;17.30;93.10
81307;DHT22;70775;50.846;3.224;2023-07-31T04:12:26;17.30;92.60
81307;DHT22;70775;50.846;3.224;2023-07-31T04:14:52;17.30;92.60
81307;DHT22;70775;50.846;3.224;2023-07-31T04:17:18;17.30;93.30
81307;DHT22;70775;50.846;3.224;2023-07-31T04:19:44;17.30;92.90
81307;DHT22;70775;50.846;3.224;2023-07-31T04:22:10;17.30;93.10
81307;DHT22;70775;50.846;3.224;2023-07-31T04:24:35;17.30;93.30
81307;DHT22;70775;50.846;3.224;2023-07-31T04:27:01;17.30;93.40
81307;DHT22;70775;50.846;3.224;2023-07-31T04:29:27;17.40;93.40
81307;DHT22;70775;50.846;3.224;2023-07-31T04:31:52;17.40;93.20
81307;DHT22;70775;50.846;3.224;2023-07-31T04:34:18;17.30;93.50
81307;DHT22;70775;50.846;3.224;2023-07-31T04:36:45;17.30;93.50
81307;DHT22;70775;50.846;3.224;2023-07-31T04:39:10;17.30;93.70
81307;DHT22;70775;50.846;3.224;2023-07-31T04:41:36;17.30;93.70
81307;DHT22;70775;50.846;3.224;2023-07-31T04:44:02;17.30;93.50
81307;DHT22;70775;50.846;3.224;2023-07-31T04:46:29;17.30;93.50
81307;DHT22;70775;50.846;3.224;2023-07-31T04:48:55;17.30;93.40
81307;DHT22;70775;50.846;3.224;2023-07-31T04:51:23;17.40;93.30
81307;DHT22;70775;50.846;3.224;2023-07-31T04:53:49;17.40;93.10
81307;DHT22;70775;50.846;3.224;2023-07-31T04:56:15;17.40;93.20
81307;DHT22;70775;50.846;3.224;2023-07-31T04:58:41;17.40;92.90
81307;DHT22;70775;50.846;3.224;2023-07-31T05:01:07;17.50;92.90
81307;DHT22;70775;50.846;3.224;2023-07-31T05:03:33;17.40;93.10
81307;DHT22;70775;50.846;3.224;2023-07-31T05:05:59;17.40;93.40
81307;DHT22;70775;50.846;3.224;2023-07-31T05:08:25;17.40;93.10
81307;DHT22;70775;50.846;3.224;2023-07-31T05:10:50;17.40;93.30
81307;DHT22;70775;50.846;3.224;2023-07-31T05:13:16;17.40;92.70
81307;DHT22;70775;50.846;3.224;2023-07-31T05:15:41;17.40;92.10
81307;DHT22;70775;50.846;3.224;2023-07-31T05:18:07;17.40;92.40
81307;DHT22;70775;50.846;3.224;2023-07-31T05:20:33;17.40;92.30
81307;DHT22;70775;50.846;3.224;2023-07-31T05:22:59;17.40;92.20
81307;DHT22;70775;50.846;3.224;2023-07-31T05:25:26;17.40;92.10
81307;DHT22;70775;50.846;3.224;2023-07-31T05:27:51;17.40;92.60
81307;DHT22;70775;50.846;3.224;2023-07-31T05:30:17;17.50;91.80
81307;DHT22;70775;50.846;3.224;2023-07-31T05:32:43;17.50;92.00
81307;DHT22;70775;50.846;3.224;2023-07-31T05:35:08;17.50;91.70
81307;DHT22;70775;50.846;3.224;2023-07-31T05:37:34;17.50;91.80
81307;DHT22;70775;50.846;3.224;2023-07-31T05:40:01;17.50;91.70
81307;DHT22;70775;50.846;3.224;2023-07-31T05:42:26;17.50;91.50
81307;DHT22;70775;50.846;3.224;2023-07-31T05:44:52;17.60;91.40
81307;DHT22;70775;50.846;3.224;2023-07-31T05:47:18;17.60;91.80
81307;DHT22;70775;50.846;3.224;2023-07-31T05:49:44;17.60;91.30
81307;DHT22;70775;50.846;3.224;2023-07-31T05:52:09;17.60;91.10
81307;DHT22;70775;50.846;3.224;2023-07-31T05:54:35;17.60;91.00
81307;DHT22;70775;50.846;3.224;2023-07-31T05:57:01;17.70;91.20
81307;DHT22;70775;50.846;3.224;2023-07-31T05:59:26;17.70;91.10
81307;DHT22;70775;50.846;3.224;2023-07-31T06:01:53;17.70;90.90
81307;DHT22;70775;50.846;3.224;2023-07-31T06:04:18;17.70;90.80
81307;DHT22;70775;50.846;3.224;2023-07-31T06:06:44;17.70;91.10
81307;DHT22;70775;50.846;3.224;2023-07-31T06:09:10;17.80;90.90
81307;DHT22;70775;50.846;3.224;2023-07-31T06:11:37;17.80;90.80
81307;DHT22;70775;50.846;3.224;2023-07-31T06:14:02;17.80;90.60
81307;DHT22;70775;50.846;3.224;2023-07-31T06:16:28;17.90;90.40
81307;DHT22;70775;50.846;3.224;2023-07-31T06:18:54;18.00;90.60
81307;DHT22;70775;50.846;3.224;2023-07-31T06:21:19;18.10;90.30
81307;DHT22;70775;50.846;3.224;2023-07-31T06:23:45;18.00;90.10
81307;DHT22;70775;50.846;3.224;2023-07-31T06:26:10;18.00;90.40
81307;DHT22;70775;50.846;3.224;2023-07-31T06:28:36;18.00;90.40
81307;DHT22;70775;50.846;3.224;2023-07-31T06:31:02;18.00;90.30
81307;DHT22;70775;50.846;3.224;2023-07-31T06:33:28;18.00;89.30
81307;DHT22;70775;50.846;3.224;2023-07-31T06:35:53;18.00;89.70
81307;DHT22;70775;50.846;3.224;2023-07-31T06:38:24;18.00;89.80
81307;DHT22;70775;50.846;3.224;2023-07-31T06:40:50;18.00;90.00
81307;DHT22;70775;50.846;3.224;2023-07-31T06:43:15;18.10;89.00
81307;DHT22;70775;50.846;3.224;2023-07-31T06:45:41;18.00;89.60
81307;DHT22;70775;50.846;3.224;2023-07-31T06:48:07;18.00;89.00
81307;DHT22;70775;50.846;3.224;2023-07-31T06:50:32;18.10;89.10
81307;DHT22;70775;50.846;3.224;2023-07-31T06:52:59;18.20;89.30
81307;DHT22;70775;50.846;3.224;2023-07-31T06:55:26;18.10;89.00
81307;DHT22;70775;50.846;3.224;2023-07-31T06:57:53;18.20;88.40
81307;DHT22;70775;50.846;3.224;2023-07-31T07:00:20;18.10;89.00
81307;DHT22;70775;50.846;3.224;2023-07-31T07:02:46;18.20;89.10
81307;DHT22;70775;50.846;3.224;2023-07-31T07:05:16;18.30;88.70
81307;DHT22;70775;50.846;3.224;2023-07-31T07:07:43;18.40;87.80
81307;DHT22;70775;50.846;3.224;2023-07-31T07:10:09;18.40;87.80
81307;DHT22;70775;50.846;3.224;2023-07-31T07:12:35;18.30;88.50
81307;DHT22;70775;50.846;3.224;2023-07-31T07:15:01;18.30;89.10
81307;DHT22;70775;50.846;3.224;2023-07-31T07:17:29;18.20;88.70
81307;DHT22;70775;50.846;3.224;2023-07-31T07:19:58;18.10;89.00
81307;DHT22;70775;50.846;3.224;2023-07-31T07:22:24;18.00;90.00
81307;DHT22;70775;50.846;3.224;2023-07-31T07:24:51;18.00;90.00
81307;DHT22;70775;50.846;3.224;2023-07-31T07:27:17;18.00;89.90
81307;DHT22;70775;50.846;3.224;2023-07-31T07:29:42;18.00;89.90
81307;DHT22;70775;50.846;3.224;2023-07-31T07:32:08;18.00;89.80
81307;DHT22;70775;50.846;3.224;2023-07-31T07:34:34;18.10;90.30
81307;DHT22;70775;50.846;3.224;2023-07-31T07:36:59;18.10;90.00
81307;DHT22;70775;50.846;3.224;2023-07-31T07:39:25;18.10;90.10
81307;DHT22;70775;50.846;3.224;2023-07-31T07:41:51;18.10;90.00
81307;DHT22;70775;50.846;3.224;2023-07-31T07:44:18;18.20;90.40
81307;DHT22;70775;50.846;3.224;2023-07-31T07:46:44;18.30;90.10
81307;DHT22;70775;50.846;3.224;2023-07-31T07:49:09;18.50;90.30
81307;DHT22;70775;50.846;3.224;2023-07-31T07:51:35;18.60;89.80
81307;DHT22;70775;50.846;3.224;2023-07-31T07:54:01;18.70;89.00
81307;DHT22;70775;50.846;3.224;2023-07-31T07:56:27;18.60;88.90
81307;DHT22;70775;50.846;3.224;2023-07-31T07:58:54;18.60;89.60
81307;DHT22;70775;50.846;3.224;2023-07-31T08:01:20;18.60;89.40
81307;DHT22;70775;50.846;3.224;2023-07-31T08:03:47;18.50;89.90
81307;DHT22;70775;50.846;3.224;2023-07-31T08:06:13;18.50;89.60
81307;DHT22;70775;50.846;3.224;2023-07-31T08:08:39;18.40;90.30
81307;DHT22;70775;50.846;3.224;2023-07-31T08:11:05;18.50;90.10
81307;DHT22;70775;50.846;3.224;2023-07-31T08:13:31;18.40;90.30
81307;DHT22;70775;50.846;3.224;2023-07-31T08:15:56;18.40;90.30
81307;DHT22;70775;50.846;3.224;2023-07-31T08:18:22;18.40;90.60
81307;DHT22;70775;50.846;3.224;2023-07-31T08:20:47;18.50;90.70
81307;DHT22;70775;50.846;3.224;2023-07-31T08:23:13;18.50;90.50
81307;DHT22;70775;50.846;3.224;2023-07-31T08:25:39;18.50;90.80
81307;DHT22;70775;50.846;3.224;2023-07-31T08:28:05;18.60;90.80
81307;DHT22;70775;50.846;3.224;2023-07-31T08:30:32;18.70;90.40
81307;DHT22;70775;50.846;3.224;2023-07-31T08:32:58;18.70;90.70
81307;DHT22;70775;50.846;3.224;2023-07-31T08:35:24;18.80;90.80
81307;DHT22;70775;50.846;3.224;2023-07-31T08:37:50;18.80;90.80
81307;DHT22;70775;50.846;3.224;2023-07-31T08:40:16;18.80;90.60
81307;DHT22;70775;50.846;3.224;2023-07-31T08:42:48;18.80;90.40
81307;DHT22;70775;50.846;3.224;2023-07-31T08:45:15;18.80;90.40
81307;DHT22;70775;50.846;3.224;2023-07-31T08:47:49;18.70;90.70
81307;DHT22;70775;50.846;3.224;2023-07-31T08:50:17;18.70;90.90
81307;DHT22;70775;50.846;3.224;2023-07-31T08:52:43;18.80;91.00
81307;DHT22;70775;50.846;3.224;2023-07-31T08:55:09;18.80;91.00
81307;DHT22;70775;50.846;3.224;2023-07-31T08:57:36;18.80;90.80
81307;DHT22;70775;50.846;3.224;2023-07-31T09:00:07;18.80;91.00
81307;DHT22;70775;50.846;3.224;2023-07-31T09:02:50;18.70;91.00
81307;DHT22;70775;50.846;3.224;2023-07-31T09:05:17;18.80;90.70
81307;DHT22;70775;50.846;3.224;2023-07-31T09:07:47;18.80;91.10
81307;DHT22;70775;50.846;3.224;2023-07-31T09:10:13;18.90;90.90
81307;DHT22;70775;50.846;3.224;2023-07-31T09:12:39;19.10;90.50
81307;DHT22;70775;50.846;3.224;2023-07-31T09:15:05;19.10;90.40
81307;DHT22;70775;50.846;3.224;2023-07-31T09:17:33;19.00;90.60
81307;DHT22;70775;50.846;3.224;2023-07-31T09:20:19;19.00;90.60
81307;DHT22;70775;50.846;3.224;2023-07-31T09:22:46;19.10;90.40
81307;DHT22;70775;50.846;3.224;2023-07-31T09:25:24;19.10;90.20
81307;DHT22;70775;50.846;3.224;2023-07-31T09:27:55;19.30;90.20
81307;DHT22;70775;50.846;3.224;2023-07-31T09:30:21;19.40;90.00
81307;DHT22;70775;50.846;3.224;2023-07-31T09:32:48;19.50;89.50
81307;DHT22;70775;50.846;3.224;2023-07-31T09:35:31;19.50;90.00
81307;DHT22;70775;50.846;3.224;2023-07-31T09:38:06;19.70;89.60
81307;DHT22;70775;50.846;3.224;2023-07-31T09:40:36;19.70;89.00
81307;DHT22;70775;50.846;3.224;2023-07-31T09:43:04;19.70;89.00
81307;DHT22;70775;50.846;3.224;2023-07-31T09:45:34;19.70;88.60
81307;DHT22;70775;50.846;3.224;2023-07-31T09:48:00;19.70;88.50
81307;DHT22;70775;50.846;3.224;2023-07-31T09:50:25;19.60;89.10
81307;DHT22;70775;50.846;3.224;2023-07-31T09:52:51;19.60;88.90
81307;DHT22;70775;50.846;3.224;2023-07-31T09:55:18;19.60;88.90
81307;DHT22;70775;50.846;3.224;2023-07-31T09:57:46;19.50;88.80
81307;DHT22;70775;50.846;3.224;2023-07-31T10:00:14;19.50;89.10
81307;DHT22;70775;50.846;3.224;2023-07-31T10:02:41;19.50;89.30
81307;DHT22;70775;50.846;3.224;2023-07-31T10:05:07;19.50;88.80
81307;DHT22;70775;50.846;3.224;2023-07-31T10:07:38;19.60;89.50
81307;DHT22;70775;50.846;3.224;2023-07-31T10:10:05;19.70;88.30
81307;DHT22;70775;50.846;3.224;2023-07-31T10:12:33;19.70;88.30
81307;DHT22;70775;50.846;3.224;2023-07-31T10:15:00;19.80;88.60
81307;DHT22;70775;50.846;3.224;2023-07-31T10:17:26;19.90;87.60
81307;DHT22;70775;50.846;3.224;2023-07-31T10:19:53;19.80;87.90
81307;DHT22;70775;50.846;3.224;2023-07-31T10:22:20;19.80;88.20
81307;DHT22;70775;50.846;3.224;2023-07-31T10:24:46;19.80;87.90
81307;DHT22;70775;50.846;3.224;2023-07-31T10:27:14;19.80;87.50
81307;DHT22;70775;50.846;3.224;2023-07-31T10:29:41;19.80;87.90
81307;DHT22;70775;50.846;3.224;2023-07-31T10:32:10;19.80;89.20
81307;DHT22;70775;50.846;3.224;2023-07-31T10:34:39;19.80;87.80
81307;DHT22;70775;50.846;3.224;2023-07-31T10:37:36;19.80;87.60
81307;DHT22;70775;50.846;3.224;2023-07-31T10:40:09;19.70;88.20
81307;DHT22;70775;50.846;3.224;2023-07-31T10:42:46;19.70;88.80
81307;DHT22;70775;50.846;3.224;2023-07-31T10:45:13;19.80;88.60
81307;DHT22;70775;50.846;3.224;2023-07-31T10:47:45;19.90;87.40
81307;DHT22;70775;50.846;3.224;2023-07-31T10:50:21;19.90;88.00
81307;DHT22;70775;50.846;3.224;2023-07-31T10:52:48;20.00;88.50
81307;DHT22;70775;50.846;3.224;2023-07-31T10:55:40;20.00;87.20
81307;DHT22;70775;50.846;3.224;2023-07-31T10:58:11;20.00;86.90
81307;DHT22;70775;50.846;3.224;2023-07-31T11:00:39;20.10;87.40
81307;DHT22;70775;50.846;3.224;2023-07-31T11:03:25;20.20;86.80
81307;DHT22;70775;50.846;3.224;2023-07-31T11:06:04;20.20;86.40
81307;DHT22;70775;50.846;3.224;2023-07-31T11:08:35;20.10;85.80
81307;DHT22;70775;50.846;3.224;2023-07-31T11:11:10;20.10;86.40
81307;DHT22;70775;50.846;3.224;2023-07-31T11:13:47;20.20;86.20
81307;DHT22;70775;50.846;3.224;2023-07-31T11:16:15;20.20;86.40
81307;DHT22;70775;50.846;3.224;2023-07-31T11:18:42;20.30;85.60
81307;DHT22;70775;50.846;3.224;2023-07-31T11:21:12;20.30;85.10
81307;DHT22;70775;50.846;3.224;2023-07-31T11:23:38;20.40;85.30
81307;DHT22;70775;50.846;3.224;2023-07-31T11:26:05;20.50;85.60
81307;DHT22;70775;50.846;3.224;2023-07-31T11:28:33;20.50;84.90
81307;DHT22;70775;50.846;3.224;2023-07-31T11:31:00;20.50;84.40
81307;DHT22;70775;50.846;3.224;2023-07-31T11:33:26;20.50;85.00
81307;DHT22;70775;50.846;3.224;2023-07-31T11:35:51;20.40;84.70
81307;DHT22;70775;50.846;3.224;2023-07-31T11:38:28;20.40;84.90
81307;DHT22;70775;50.846;3.224;2023-07-31T11:40:57;20.50;84.70
81307;DHT22;70775;50.846;3.224;2023-07-31T11:43:23;20.50;84.00
81307;DHT22;70775;50.846;3.224;2023-07-31T11:45:54;20.50;84.00
81307;DHT22;70775;50.846;3.224;2023-07-31T11:48:25;20.50;84.00
81307;DHT22;70775;50.846;3.224;2023-07-31T11:50:53;20.50;84.60
81307;DHT22;70775;50.846;3.224;2023-07-31T11:53:36;20.50;84.00
81307;DHT22;70775;50.846;3.224;2023-07-31T11:56:04;20.50;84.10
81307;DHT22;70775;50.846;3.224;2023-07-31T11:58:31;20.50;84.70
81307;DHT22;70775;50.846;3.224;2023-07-31T12:00:58;20.60;85.10
81307;DHT22;70775;50.846;3.224;2023-07-31T12:03:25;20.50;85.70
81307;DHT22;70775;50.846;3.224;2023-07-31T12:05:52;20.20;87.80
81307;DHT22;70775;50.846;3.224;2023-07-31T12:08:21;19.90;90.10
81307;DHT22;70775;50.846;3.224;2023-07-31T12:10:47;19.80;90.70
81307;DHT22;70775;50.846;3.224;2023-07-31T12:13:25;19.60;91.20
81307;DHT22;70775;50.846;3.224;2023-07-31T12:15:56;19.30;92.10
81307;DHT22;70775;50.846;3.224;2023-07-31T12:18:24;19.10;92.70
81307;DHT22;70775;50.846;3.224;2023-07-31T12:20:55;19.00;92.90
81307;DHT22;70775;50.846;3.224;2023-07-31T12:23:24;18.90;93.60
81307;DHT22;70775;50.846;3.224;2023-07-31T12:26:06;18.70;94.10
81307;DHT22;70775;50.846;3.224;2023-07-31T12:31:09;18.80;94.20
81307;DHT22;70775;50.846;3.224;2023-07-31T12:33:36;18.70;94.60
81307;DHT22;70775;50.846;3.224;2023-07-31T12:36:06;18.70;94.60
81307;DHT22;70775;50.846;3.224;2023-07-31T12:38:37;18.70;94.80
81307;DHT22;70775;50.846;3.224;2023-07-31T12:41:06;18.70;94.90
81307;DHT22;70775;50.846;3.224;2023-07-31T12:43:36;18.70;94.60
81307;DHT22;70775;50.846;3.224;2023-07-31T12:46:02;18.60;94.50
81307;DHT22;70775;50.846;3.224;2023-07-31T12:48:29;18.60;94.80
81307;DHT22;70775;50.846;3.224;2023-07-31T12:50:54;18.60;95.10
81307;DHT22;70775;50.846;3.224;2023-07-31T12:53:20;18.70;95.00
81307;DHT22;70775;50.846;3.224;2023-07-31T12:55:46;18.70;94.80
81307;DHT22;70775;50.846;3.224;2023-07-31T12:58:12;18.70;95.00
81307;DHT22;70775;50.846;3.224;2023-07-31T13:00:43;18.70;95.20
81307;DHT22;70775;50.846;3.224;2023-07-31T13:03:12;18.80;95.00
81307;DHT22;70775;50.846;3.224;2023-07-31T13:05:40;18.80;95.10
81307;DHT22;70775;50.846;3.224;2023-07-31T13:08:06;18.80;95.00
81307;DHT22;70775;50.846;3.224;2023-07-31T13:10:32;18.80;95.00
81307;DHT22;70775;50.846;3.224;2023-07-31T13:13:09;18.90;94.70
81307;DHT22;70775;50.846;3.224;2023-07-31T13:15:38;18.80;94.90
81307;DHT22;70775;50.846;3.224;2023-07-31T13:18:04;18.90;95.40
81307;DHT22;70775;50.846;3.224;2023-07-31T13:20:32;19.00;95.20
81307;DHT22;70775;50.846;3.224;2023-07-31T13:22:58;19.00;94.70
81307;DHT22;70775;50.846;3.224;2023-07-31T13:25:24;18.90;94.90
81307;DHT22;70775;50.846;3.224;2023-07-31T13:27:50;18.80;95.10
81307;DHT22;70775;50.846;3.224;2023-07-31T13:30:22;18.80;95.10
81307;DHT22;70775;50.846;3.224;2023-07-31T13:32:50;18.80;95.10
81307;DHT22;70775;50.846;3.224;2023-07-31T13:35:16;19.00;95.30
81307;DHT22;70775;50.846;3.224;2023-07-31T13:37:41;19.00;95.00
81307;DHT22;70775;50.846;3.224;2023-07-31T13:40:07;19.00;94.90
81307;DHT22;70775;50.846;3.224;2023-07-31T13:42:36;18.90;95.40
81307;DHT22;70775;50.846;3.224;2023-07-31T13:45:02;18.90;95.10
81307;DHT22;70775;50.846;3.224;2023-07-31T13:47:30;18.90;95.30
81307;DHT22;70775;50.846;3.224;2023-07-31T13:49:57;19.00;95.30
81307;DHT22;70775;50.846;3.224;2023-07-31T13:52:22;19.00;94.90
81307;DHT22;70775;50.846;3.224;2023-07-31T13:54:48;19.00;94.60
81307;DHT22;70775;50.846;3.224;2023-07-31T13:57:17;18.90;95.10
81307;DHT22;70775;50.846;3.224;2023-07-31T13:59:42;19.00;95.40
81307;DHT22;70775;50.846;3.224;2023-07-31T14:02:08;19.10;94.70
81307;DHT22;70775;50.846;3.224;2023-07-31T14:04:34;19.00;95.00
81307;DHT22;70775;50.846;3.224;2023-07-31T14:06:59;19.00;94.90
81307;DHT22;70775;50.846;3.224;2023-07-31T14:09:25;19.00;94.90
81307;DHT22;70775;50.846;3.224;2023-07-31T14:11:52;18.90;95.20
81307;DHT22;70775;50.846;3.224;2023-07-31T14:14:20;18.90;95.30
81307;DHT22;70775;50.846;3.224;2023-07-31T14:16:46;18.90;95.00
81307;DHT22;70775;50.846;3.224;2023-07-31T14:19:14;18.90;95.20
81307;DHT22;70775;50.846;3.224;2023-07-31T14:21:43;18.90;95.20
81307;DHT22;70775;50.846;3.224;2023-07-31T14:24:11;19.00;95.40
81307;DHT22;70775;50.846;3.224;2023-07-31T14:26:37;19.00;95.30
81307;DHT22;70775;50.846;3.224;2023-07-31T14:29:03;18.90;95.40
81307;DHT22;70775;50.846;3.224;2023-07-31T14:31:28;18.90;95.50
81307;DHT22;70775;50.846;3.224;2023-07-31T14:33:57;18.80;95.70
81307;DHT22;70775;50.846;3.224;2023-07-31T14:36:22;18.90;95.50
81307;DHT22;70775;50.846;3.224;2023-07-31T14:38:48;18.90;95.60
81307;DHT22;70775;50.846;3.224;2023-07-31T14:41:14;18.90;95.40
81307;DHT22;70775;50.846;3.224;2023-07-31T14:43:39;18.90;95.40
81307;DHT22;70775;50.846;3.224;2023-07-31T14:46:05;18.90;95.60
81307;DHT22;70775;50.846;3.224;2023-07-31T14:48:31;18.90;95.20
81307;DHT22;70775;50.846;3.224;2023-07-31T14:50:56;18.80;95.60
81307;DHT22;70775;50.846;3.224;2023-07-31T14:53:22;18.80;96.00
81307;DHT22;70775;50.846;3.224;2023-07-31T14:55:50;18.80;95.70
81307;DHT22;70775;50.846;3.224;2023-07-31T14:58:15;18.80;96.00
81307;DHT22;70775;50.846;3.224;2023-07-31T15:00:45;18.80;95.80
81307;DHT22;70775;50.846;3.224;2023-07-31T15:03:11;18.80;95.80
81307;DHT22;70775;50.846;3.224;2023-07-31T15:05:39;18.80;95.70
81307;DHT22;70775;50.846;3.224;2023-07-31T15:08:04;18.80;95.70
81307;DHT22;70775;50.846;3.224;2023-07-31T15:10:30;18.80;95.50
81307;DHT22;70775;50.846;3.224;2023-07-31T15:12:56;18.80;95.50
81307;DHT22;70775;50.846;3.224;2023-07-31T15:15:22;18.80;95.80
81307;DHT22;70775;50.846;3.224;2023-07-31T15:17:55;18.80;96.00
81307;DHT22;70775;50.846;3.224;2023-07-31T15:20:24;18.80;95.90
81307;DHT22;70775;50.846;3.224;2023-07-31T15:22:50;18.90;95.80
81307;DHT22;70775;50.846;3.224;2023-07-31T15:25:16;18.80;95.70
81307;DHT22;70775;50.846;3.224;2023-07-31T15:27:41;18.80;95.80
81307;DHT22;70775;50.846;3.224;2023-07-31T15:30:07;18.80;96.10
81307;DHT22;70775;50.846;3.224;2023-07-31T15:32:33;18.80;95.90
81307;DHT22;70775;50.846;3.224;2023-07-31T15:35:02;18.70;96.20
81307;DHT22;70775;50.846;3.224;2023-07-31T15:37:28;18.80;96.00